createdAt,value
2017-10-16T18:26:47.645Z,3.33
2017-10-16T18:29:15.916Z,3.70
2017-10-16T18:31:44.246Z,3.83
2017-10-16T18:34:21.789Z,9.90
2017-10-16T18:38:45.343Z,17.00
2017-10-16T18:41:12.867Z,16.43
2017-10-16T18:43:40.338Z,16.53
2017-10-16T18:46:07.872Z,17.13
2017-10-16T18:48:36.396Z,16.80
2017-10-16T18:51:03.914Z,17.50
2017-10-16T18:53:31.382Z,16.00
2017-10-16T18:56:00.044Z,14.53
2017-10-16T18:58:27.542Z,13.50
2017-10-16T19:00:56.919Z,12.80
2017-10-16T19:03:24.372Z,13.20
2017-10-16T19:05:51.920Z,12.67
2017-10-16T19:08:19.371Z,13.60
2017-10-16T19:10:47.608Z,11.60
2017-10-16T19:13:15.910Z,11.30
2017-10-16T19:15:43.364Z,11.73
2017-10-16T19:18:10.987Z,11.43
2017-10-16T19:20:39.223Z,11.10
2017-10-16T19:23:16.931Z,10.00
2017-10-16T19:25:57.785Z,9.17
2017-10-16T19:28:25.233Z,10.60
2017-10-16T19:30:52.676Z,10.40
2017-10-16T19:33:20.123Z,10.00
2017-10-16T19:35:47.686Z,8.90
2017-10-16T19:38:15.141Z,8.83
2017-10-16T19:40:42.592Z,8.43
2017-10-16T19:43:10.061Z,8.90
2017-10-16T19:45:37.495Z,8.20
2017-10-16T19:48:04.951Z,8.47
2017-10-16T19:50:32.384Z,8.57
2017-10-16T19:53:00.583Z,8.50
2017-10-16T19:55:28.086Z,8.60
2017-10-16T19:57:55.524Z,7.80
2017-10-16T20:00:23.078Z,8.47
2017-10-16T20:02:50.537Z,8.80
2017-10-16T20:05:17.991Z,8.17
2017-10-16T20:07:45.490Z,8.53
2017-10-16T20:10:13.832Z,8.07
2017-10-16T20:12:51.218Z,8.40
2017-10-16T20:15:29.100Z,8.00
2017-10-16T20:18:06.517Z,8.30
2017-10-16T20:20:34.689Z,7.97
2017-10-16T20:23:02.151Z,8.03
2017-10-16T20:25:30.370Z,8.60
2017-10-16T20:28:09.740Z,9.80
2017-10-16T20:30:38.187Z,9.60
2017-10-16T20:33:06.379Z,9.70
2017-10-16T20:35:34.503Z,9.43
2017-10-16T20:38:02.749Z,11.10
2017-10-16T20:40:30.272Z,9.90
2017-10-16T20:42:57.737Z,9.90
2017-10-16T20:45:25.868Z,10.23
2017-10-16T20:47:54.095Z,9.83
2017-10-16T20:50:21.646Z,9.90
2017-10-16T20:52:52.069Z,9.13
2017-10-16T20:55:21.187Z,8.43
2017-10-16T20:57:48.848Z,9.43
2017-10-16T21:00:16.300Z,9.33
2017-10-16T21:02:43.735Z,9.40
2017-10-16T21:05:11.294Z,9.47
2017-10-16T21:07:38.731Z,9.13
2017-10-16T21:10:06.182Z,9.97
2017-10-16T21:12:34.215Z,10.30
2017-10-16T21:15:02.420Z,9.30
2017-10-16T21:17:29.909Z,9.47
2017-10-16T21:19:57.342Z,8.87
2017-10-16T21:22:24.811Z,9.30
2017-10-16T21:24:52.316Z,7.50
2017-10-16T21:27:20.526Z,8.60
2017-10-16T21:29:47.952Z,8.90
2017-10-16T21:32:15.399Z,8.50
2017-10-16T21:34:43.644Z,9.00
2017-10-16T21:37:11.175Z,7.97
2017-10-16T21:39:38.603Z,8.50
2017-10-16T21:42:06.098Z,8.70
2017-10-16T21:44:33.657Z,9.47
2017-10-16T21:47:01.095Z,8.77
2017-10-16T21:49:28.622Z,8.23
2017-10-16T21:51:56.080Z,7.70
2017-10-16T21:54:23.514Z,8.60
2017-10-16T21:56:51.847Z,8.97
2017-10-16T21:59:19.303Z,8.60
2017-10-16T22:01:46.972Z,8.30
2017-10-16T22:04:14.506Z,9.30
2017-10-16T22:06:41.975Z,7.70
2017-10-16T22:09:09.422Z,7.90
2017-10-16T22:11:36.874Z,7.93
2017-10-16T22:14:05.319Z,9.07
2017-10-16T22:16:32.810Z,8.30
2017-10-16T22:19:00.267Z,7.50
2017-10-16T22:21:27.765Z,8.70
2017-10-16T22:23:55.206Z,7.73
2017-10-16T22:26:22.755Z,7.50
2017-10-16T22:28:50.304Z,7.80
2017-10-16T22:31:17.736Z,8.63
2017-10-16T22:33:46.183Z,9.03
2017-10-16T22:36:14.388Z,7.87
2017-10-16T22:38:41.826Z,8.03
2017-10-16T22:41:09.345Z,8.20
2017-10-16T22:43:37.096Z,8.50
2017-10-16T22:46:04.557Z,8.47
2017-10-16T22:51:32.071Z,8.33
2017-10-16T22:54:05.166Z,8.47
2017-10-16T22:56:32.595Z,8.30
2017-10-16T22:59:00.840Z,8.27
2017-10-16T23:01:28.274Z,9.47
2017-10-16T23:03:55.742Z,9.40
2017-10-16T23:06:23.295Z,8.20
2017-10-16T23:08:50.794Z,9.10
2017-10-16T23:11:19.022Z,9.40
2017-10-16T23:13:46.481Z,8.57
2017-10-16T23:16:14.051Z,9.33
2017-10-16T23:18:41.496Z,9.40
2017-10-16T23:21:08.939Z,8.70
2017-10-16T23:23:36.386Z,8.77
2017-10-16T23:26:03.841Z,8.93
2017-10-16T23:28:31.331Z,10.07
2017-10-16T23:30:58.786Z,9.20
2017-10-16T23:33:26.215Z,8.70
2017-10-16T23:35:53.683Z,8.70
2017-10-16T23:38:21.143Z,8.70
2017-10-16T23:40:48.596Z,8.23
2017-10-16T23:43:16.047Z,7.33
2017-10-16T23:45:43.495Z,8.07
2017-10-16T23:48:10.944Z,7.47
2017-10-16T23:50:38.399Z,7.97
2017-10-16T23:53:05.924Z,7.00
2017-10-16T23:55:34.136Z,8.17
2017-10-16T23:58:02.104Z,6.83
